| time (UTC) | temp F | wind direction | speed knots | gust knots | rain 1hr in | rain 24hr in | rain mn in | humidity % | barometer mb |
| 20260502130330 | 41 | 344 | 4.3 | 9.6 | 0.00 | 0.00 | 0.00 | 79 | 1017.6 |
| 20260502123344 | 39 | 6 | 4.3 | 7.0 | 0.00 | 0.00 | 0.00 | 87 | 1017.7 |
| 20260502122830 | 38 | 324 | 2.6 | 4.3 | 0.00 | 0.00 | 0.00 | 87 | 1017.7 |
| 20260502122318 | 38 | 350 | 1.7 | 3.5 | 0.00 | 0.00 | 0.00 | 87 | 1017.7 |
| 20260502121848 | 38 | 5 | 1.7 | 3.5 | 0.00 | 0.00 | 0.00 | 87 | 1017.6 |
| 20260502121355 | 37 | 102 | 0.0 | 1.7 | 0.00 | 0.00 | 0.00 | 87 | 1017.5 |
| 20260502120823 | 37 | 102 | 0.0 | 2.6 | 0.00 | 0.00 | 0.00 | 87 | 1017.5 |
| 20260502120331 | 36 | 233 | 0.0 | 0.9 | 0.00 | 0.00 | 0.00 | 86 | 1017.5 |
| 20260502115818 | 36 | 233 | 0.0 | 0.9 | 0.00 | 0.00 | 0.00 | 86 | 1017.4 |
| 20260502115348 | 35 | 233 | 0.0 | 0.0 | 0.00 | 0.00 | 0.00 | 86 | 1017.5 |
| 20260502114835 | 35 | 233 | 0.0 | 1.7 | 0.00 | 0.00 | 0.00 | 86 | 1017.5 |
| 20260502114327 | 34 | 233 | 0.9 | 1.7 | 0.00 | 0.00 | 0.00 | 86 | 1017.5 |
| 20260502113856 | 34 | 233 | 0.0 | 0.0 | 0.00 | 0.00 | 0.00 | 86 | 1017.5 |
| 20260502113323 | 33 | 233 | 0.0 | 0.0 | 0.00 | 0.00 | 0.00 | 86 | 1017.4 |
| 20260502112830 | 33 | 233 | 0.0 | 0.0 | 0.00 | 0.00 | 0.00 | 86 | 1017.4 |
| 20260502112339 | 33 | 233 | 0.0 | 0.0 | 0.00 | 0.00 | 0.00 | 85 | 1017.3 |
| 20260502011329 | 44 | 357 | 2.6 | 5.2 | 0.00 | 0.00 | 0.00 | 72 | 1016.6 |
| 20260502010837 | 44 | 355 | 2.6 | 5.2 | 0.00 | 0.00 | 0.00 | 72 | 1016.5 |
| 20260502010325 | 45 | 16 | 2.6 | 7.8 | 0.00 | 0.00 | 0.00 | 71 | 1016.4 |
| 20260502005832 | 45 | 15 | 4.3 | 7.8 | 0.00 | 0.00 | 0.00 | 70 | 1016.4 |
| 20260502005319 | 45 | 355 | 2.6 | 7.0 | 0.00 | 0.00 | 0.00 | 70 | 1016.2 |
| 20260502004830 | 45 | 10 | 2.6 | 7.8 | 0.00 | 0.00 | 0.00 | 70 | 1016.3 |
| 20260502004337 | 45 | 12 | 4.3 | 7.8 | 0.00 | 0.00 | 0.00 | 69 | 1016.2 |
| 20260502003824 | 46 | 4 | 3.5 | 7.8 | 0.00 | 0.00 | 0.00 | 69 | 1016.3 |
| 20260502003332 | 46 | 340 | 3.5 | 7.8 | 0.00 | 0.00 | 0.00 | 68 | 1016.1 |
| 20260502002819 | 46 | 11 | 3.5 | 8.7 | 0.00 | 0.00 | 0.00 | 68 | 1016.1 |
| 20260502002334 | 46 | 356 | 2.6 | 8.7 | 0.00 | 0.00 | 0.00 | 67 | 1016.0 |
| 20260502001824 | 47 | 9 | 4.3 | 14.8 | 0.00 | 0.00 | 0.00 | 67 | 1015.9 |
| 20260502001352 | 47 | 356 | 8.7 | 14.8 | 0.00 | 0.00 | 0.00 | 66 | 1015.8 |
| 20260502000817 | 47 | 337 | 6.1 | 12.2 | 0.00 | 0.00 | 0.00 | 67 | 1015.8 |
| 20260502000328 | 47 | 292 | 6.1 | 9.6 | 0.00 | 0.00 | 0.00 | 66 | 1015.8 |
| 20260501235836 | 47 | 11 | 3.5 | 8.7 | 0.00 | 0.00 | 0.00 | 66 | 1015.8 |
| 20260501235325 | 48 | 346 | 4.3 | 11.3 | 0.00 | 0.00 | 0.00 | 66 | 1015.6 |
| 20260501234833 | 48 | 27 | 5.2 | 12.2 | 0.00 | 0.00 | 0.00 | 65 | 1015.6 |
| 20260501234402 | 48 | 1 | 4.3 | 12.2 | 0.00 | 0.00 | 0.00 | 64 | 1015.5 |
| 20260501233827 | 48 | 10 | 4.3 | 16.5 | 0.00 | 0.00 | 0.00 | 64 | 1015.4 |
| 20260501233355 | 49 | 347 | 7.0 | 16.5 | 0.00 | 0.00 | 0.00 | 63 | 1015.4 |
| 20260501201819 | 50 | 269 | 2.6 | 6.1 | 0.00 | 0.00 | 0.00 | 80 | 1013.3 |
| 20260501201330 | 50 | 265 | 2.6 | 7.0 | 0.00 | 0.00 | 0.00 | 80 | 1013.4 |
| 20260501200838 | 50 | 244 | 1.7 | 9.6 | 0.00 | 0.00 | 0.00 | 80 | 1013.4 |
| 20260501200347 | 49 | 319 | 2.6 | 12.2 | 0.00 | 0.00 | 0.00 | 79 | 1013.4 |
| 20260501195817 | 50 | 340 | 5.2 | 11.3 | 0.00 | 0.00 | 0.00 | 80 | 1013.6 |
| 20260501194837 | 50 | 312 | 3.5 | 7.8 | 0.00 | 0.00 | 0.00 | 80 | 1013.8 |
| 20260501181830 | 52 | 272 | 6.1 | 10.4 | 0.00 | 0.00 | 0.00 | 72 | 1013.1 |
| 20260501181317 | 52 | 265 | 4.3 | 8.7 | 0.00 | 0.00 | 0.00 | 73 | 1013.2 |
| 20260501180828 | 52 | 228 | 4.3 | 8.7 | 0.00 | 0.00 | 0.00 | 73 | 1013.2 |
| 20260501180356 | 52 | 283 | 4.3 | 8.7 | 0.00 | 0.00 | 0.00 | 74 | 1013.2 |
| 20260501175824 | 52 | 260 | 3.5 | 7.0 | 0.00 | 0.00 | 0.00 | 74 | 1013.1 |
| 20260501175332 | 52 | 312 | 1.7 | 4.3 | 0.00 | 0.00 | 0.00 | 74 | 1013.2 |
| 20260501174819 | 52 | 327 | 0.9 | 4.3 | 0.00 | 0.00 | 0.00 | 73 | 1013.4 |
| 20260501174330 | 52 | 345 | 1.7 | 7.0 | 0.00 | 0.00 | 0.00 | 73 | 1013.4 |
| 20260501173817 | 52 | 284 | 4.3 | 8.7 | 0.00 | 0.00 | 0.00 | 70 | 1013.3 |
| 20260501173348 | 52 | 298 | 5.2 | 8.7 | 0.00 | 0.00 | 0.00 | 69 | 1013.3 |